PWSweather.com
Personal Weather Stations
Station Observations
N3SME
Betz Creek, Wilmington Island, Savannah, GA 31410

Betz Creek, Wilmington IslandSavannah, GA 31410

Lat: 32.023021, Lon: -80.959452

Elevation: 15

Station Type: Ambient

Latest ConditionsUpdated 5:12:14 PM EDT Wednesday, Jul 30, 2014
Currently Today's Max Today's Min Today's Average
Temperature 88.2°F31.2°C 91.1°F32.8°C 73.8°F23.2°C 81.6°F27.6°C
Dew Point 73.0°F22.8°C 75.7°F24.3°C 69.2°F20.7°C 72.3°F22.4°C
Winds 10.5 mph ESE16.9 kmh ESE 12.3 mph ENE19.8 kmh ENE - 2.8 mph 4.5 kmh
Wind Gusts 26.2 mph42.2 kmh 33.3 mph53.6 kmh - -
Humidity 62% 90% 58% 75%
Pressure 29.91 in1012.9 mb 29.94 in1013.9 mb 29.87 in1011.5 mb -
Hour Temp Dew Point Humidity Winds Wind Gusts Pressure Precip Precip Rate Daily Precip Total
05:12 PM 88.2°F31.2°C 73.0°F22.8°C 62% 10.5 mph ESE16.9 kmh ESE 26.2 mph42.2 kmh 29.91 in1012.9 mb 0.00 in0.0 mm 0.00 in/hr0.0 mm/hr 0.00 in0.0 mm
04:57 PM 87.5°F30.8°C 72.9°F22.7°C 63% 8.7 mph E14.0 kmh E 24.6 mph39.6 kmh 29.90 in1012.5 mb 0.00 in0.0 mm 0.00 in/hr0.0 mm/hr 0.00 in0.0 mm
04:42 PM 87.0°F30.6°C 71.9°F22.2°C 62% 5.1 mph ESE8.2 kmh ESE 24.6 mph39.6 kmh 29.91 in1012.9 mb 0.00 in0.0 mm 0.00 in/hr0.0 mm/hr 0.00 in0.0 mm
04:27 PM 88.1°F31.2°C 71.3°F21.8°C 59% 5.1 mph E8.2 kmh E 28.0 mph45.1 kmh 29.90 in1012.5 mb 0.00 in0.0 mm 0.00 in/hr0.0 mm/hr 0.00 in0.0 mm
04:12 PM 89.5°F31.9°C 72.1°F22.3°C 58% Calm Calm 26.2 mph42.2 kmh 29.90 in1012.5 mb 0.00 in0.0 mm 0.00 in/hr0.0 mm/hr 0.00 in0.0 mm
03:57 PM 88.1°F31.2°C 72.4°F22.4°C 61% 12.3 mph E19.8 kmh E 28.0 mph45.1 kmh 29.90 in1012.5 mb 0.00 in0.0 mm 0.00 in/hr0.0 mm/hr 0.00 in0.0 mm
03:42 PM 88.4°F31.3°C 72.2°F22.3°C 60% 10.5 mph E16.9 kmh E 24.6 mph39.6 kmh 29.91 in1012.9 mb 0.00 in0.0 mm 0.00 in/hr0.0 mm/hr 0.00 in0.0 mm
03:27 PM 87.5°F30.8°C 72.4°F22.4°C 62% 6.9 mph E11.1 kmh E 22.8 mph36.7 kmh 29.90 in1012.5 mb 0.00 in0.0 mm 0.00 in/hr0.0 mm/hr 0.00 in0.0 mm
03:12 PM 89.5°F31.9°C 72.6°F22.6°C 59% 5.1 mph E8.2 kmh E 28.0 mph45.1 kmh 29.91 in1012.9 mb 0.00 in0.0 mm 0.00 in/hr0.0 mm/hr 0.00 in0.0 mm
02:57 PM 90.0°F32.2°C 74.2°F23.4°C 61% 3.6 mph ESE5.8 kmh ESE 22.8 mph36.7 kmh 29.91 in1012.9 mb 0.00 in0.0 mm 0.00 in/hr0.0 mm/hr 0.00 in0.0 mm
02:42 PM 90.2°F32.3°C 72.8°F22.7°C 58% 5.1 mph E8.2 kmh E 26.2 mph42.2 kmh 29.92 in1013.2 mb 0.00 in0.0 mm 0.00 in/hr0.0 mm/hr 0.00 in0.0 mm
02:27 PM 90.2°F32.3°C 73.3°F22.9°C 59% 12.3 mph ENE19.8 kmh ENE 33.3 mph53.6 kmh 29.91 in1012.9 mb 0.00 in0.0 mm 0.00 in/hr0.0 mm/hr 0.00 in0.0 mm
02:12 PM 88.8°F31.6°C 72.0°F22.2°C 59% 6.9 mph E11.1 kmh E 26.2 mph42.2 kmh 29.92 in1013.2 mb 0.00 in0.0 mm 0.00 in/hr0.0 mm/hr 0.00 in0.0 mm
01:57 PM 87.5°F30.8°C 71.9°F22.2°C 61% 5.1 mph E8.2 kmh E 19.2 mph30.9 kmh 29.93 in1013.5 mb 0.00 in0.0 mm 0.00 in/hr0.0 mm/hr 0.00 in0.0 mm
01:42 PM 88.6°F31.4°C 73.4°F23.0°C 62% 5.1 mph E8.2 kmh E 26.2 mph42.2 kmh 29.92 in1013.2 mb 0.00 in0.0 mm 0.00 in/hr0.0 mm/hr 0.00 in0.0 mm
01:27 PM 87.0°F30.6°C 72.9°F22.7°C 64% 3.6 mph ESE5.8 kmh ESE 26.2 mph42.2 kmh 29.93 in1013.5 mb 0.00 in0.0 mm 0.00 in/hr0.0 mm/hr 0.00 in0.0 mm
01:12 PM 87.5°F30.8°C 72.4°F22.4°C 62% 5.1 mph E8.2 kmh E 22.8 mph36.7 kmh 29.93 in1013.5 mb 0.00 in0.0 mm 0.00 in/hr0.0 mm/hr 0.00 in0.0 mm
12:57 PM 88.8°F31.6°C 73.5°F23.1°C 62% 5.1 mph SE8.2 kmh SE 17.4 mph28.0 kmh 29.93 in1013.5 mb 0.00 in0.0 mm 0.00 in/hr0.0 mm/hr 0.00 in0.0 mm
12:42 PM 89.7°F32.1°C 73.3°F22.9°C 60% 5.1 mph E8.2 kmh E 21.0 mph33.8 kmh 29.93 in1013.5 mb 0.00 in0.0 mm 0.00 in/hr0.0 mm/hr 0.00 in0.0 mm
12:27 PM 91.1°F32.8°C 75.7°F24.3°C 62% 3.6 mph E5.8 kmh E 29.8 mph48.0 kmh 29.93 in1013.5 mb 0.00 in0.0 mm 0.00 in/hr0.0 mm/hr 0.00 in0.0 mm
12:12 PM 90.6°F32.6°C 73.6°F23.1°C 59% 8.7 mph ESE14.0 kmh ESE 22.8 mph36.7 kmh 29.93 in1013.5 mb 0.00 in0.0 mm 0.00 in/hr0.0 mm/hr 0.00 in0.0 mm
11:57 AM 88.4°F31.3°C 74.2°F23.4°C 64% 8.7 mph ESE14.0 kmh ESE 26.2 mph42.2 kmh 29.93 in1013.5 mb 0.00 in0.0 mm 0.00 in/hr0.0 mm/hr 0.00 in0.0 mm
11:42 AM 85.9°F29.9°C 73.3°F22.9°C 67% 6.9 mph E11.1 kmh E 21.0 mph33.8 kmh 29.93 in1013.5 mb 0.00 in0.0 mm 0.00 in/hr0.0 mm/hr 0.00 in0.0 mm
11:27 AM 85.9°F29.9°C 72.3°F22.4°C 65% 5.1 mph E8.2 kmh E 15.7 mph25.3 kmh 29.94 in1013.9 mb 0.00 in0.0 mm 0.00 in/hr0.0 mm/hr 0.00 in0.0 mm
11:12 AM 85.4°F29.7°C 72.3°F22.4°C 66% Calm Calm 12.3 mph19.8 kmh 29.94 in1013.9 mb 0.00 in0.0 mm 0.00 in/hr0.0 mm/hr 0.00 in0.0 mm
10:57 AM 85.2°F29.6°C 71.7°F22.1°C 65% Calm Calm 12.3 mph19.8 kmh 29.93 in1013.5 mb 0.00 in0.0 mm 0.00 in/hr0.0 mm/hr 0.00 in0.0 mm
10:42 AM 85.2°F29.6°C 70.7°F21.5°C 63% 1.8 mph ESE2.9 kmh ESE 10.5 mph16.9 kmh 29.93 in1013.5 mb 0.00 in0.0 mm 0.00 in/hr0.0 mm/hr 0.00 in0.0 mm
10:27 AM 84.6°F29.2°C 70.2°F21.2°C 63% 1.8 mph SE2.9 kmh SE 8.7 mph14.0 kmh 29.93 in1013.5 mb 0.00 in0.0 mm 0.00 in/hr0.0 mm/hr 0.00 in0.0 mm
10:12 AM 84.8°F29.3°C 72.3°F22.4°C 67% 1.8 mph ESE2.9 kmh ESE 5.1 mph8.2 kmh 29.92 in1013.2 mb 0.00 in0.0 mm 0.00 in/hr0.0 mm/hr 0.00 in0.0 mm
09:57 AM 85.2°F29.6°C 71.7°F22.1°C 65% Calm Calm 10.5 mph16.9 kmh 29.93 in1013.5 mb 0.00 in0.0 mm 0.00 in/hr0.0 mm/hr 0.00 in0.0 mm
09:42 AM 85.4°F29.7°C 72.3°F22.4°C 66% 6.9 mph ESE11.1 kmh ESE 14.1 mph22.7 kmh 29.92 in1013.2 mb 0.00 in0.0 mm 0.00 in/hr0.0 mm/hr 0.00 in0.0 mm
09:27 AM 83.6°F28.7°C 73.3°F22.9°C 72% 3.6 mph E5.8 kmh E 17.4 mph28.0 kmh 29.91 in1012.9 mb 0.00 in0.0 mm 0.00 in/hr0.0 mm/hr 0.00 in0.0 mm
09:12 AM 81.0°F27.2°C 72.2°F22.3°C 75% 3.6 mph E5.8 kmh E 14.1 mph22.7 kmh 29.92 in1013.2 mb 0.00 in0.0 mm 0.00 in/hr0.0 mm/hr 0.00 in0.0 mm
08:57 AM 79.8°F26.6°C 71.4°F21.9°C 76% 3.6 mph E5.8 kmh E 12.3 mph19.8 kmh 29.92 in1013.2 mb 0.00 in0.0 mm 0.00 in/hr0.0 mm/hr 0.00 in0.0 mm
08:42 AM 79.8°F26.6°C 72.2°F22.3°C 78% 3.6 mph E5.8 kmh E 12.3 mph19.8 kmh 29.91 in1012.9 mb 0.00 in0.0 mm 0.00 in/hr0.0 mm/hr 0.00 in0.0 mm
08:27 AM 78.7°F25.9°C 72.3°F22.4°C 81% 3.6 mph E5.8 kmh E 14.1 mph22.7 kmh 29.91 in1012.9 mb 0.00 in0.0 mm 0.00 in/hr0.0 mm/hr 0.00 in0.0 mm
08:12 AM 78.2°F25.7°C 72.5°F22.5°C 83% 1.8 mph E2.9 kmh E 19.2 mph30.9 kmh 29.91 in1012.9 mb 0.00 in0.0 mm 0.00 in/hr0.0 mm/hr 0.00 in0.0 mm
07:57 AM 77.6°F25.3°C 72.3°F22.4°C 84% 1.8 mph NE2.9 kmh NE 6.9 mph11.1 kmh 29.91 in1012.9 mb 0.00 in0.0 mm 0.00 in/hr0.0 mm/hr 0.00 in0.0 mm
07:42 AM 75.8°F24.3°C 71.6°F22.0°C 87% Calm Calm 1.8 mph2.9 kmh 29.91 in1012.9 mb 0.00 in0.0 mm 0.00 in/hr0.0 mm/hr 0.00 in0.0 mm
07:27 AM 74.4°F23.6°C 69.9°F21.1°C 86% Calm Calm 3.6 mph5.8 kmh 29.91 in1012.9 mb 0.00 in0.0 mm 0.00 in/hr0.0 mm/hr 0.00 in0.0 mm
07:12 AM 74.0°F23.3°C 69.5°F20.8°C 86% Calm Calm 1.8 mph2.9 kmh 29.90 in1012.5 mb 0.00 in0.0 mm 0.00 in/hr0.0 mm/hr 0.00 in0.0 mm
06:57 AM 73.8°F23.2°C 69.3°F20.7°C 86% Calm Calm 3.6 mph5.8 kmh 29.90 in1012.5 mb 0.00 in0.0 mm 0.00 in/hr0.0 mm/hr 0.00 in0.0 mm
06:42 AM 74.0°F23.3°C 69.2°F20.7°C 85% 1.8 mph ENE2.9 kmh ENE 6.9 mph11.1 kmh 29.90 in1012.5 mb 0.00 in0.0 mm 0.00 in/hr0.0 mm/hr 0.00 in0.0 mm
06:27 AM 74.6°F23.7°C 69.7°F20.9°C 85% Calm Calm 5.1 mph8.2 kmh 29.89 in1012.2 mb 0.00 in0.0 mm 0.00 in/hr0.0 mm/hr 0.00 in0.0 mm
06:12 AM 74.6°F23.7°C 70.0°F21.1°C 86% Calm Calm 8.7 mph14.0 kmh 29.89 in1012.2 mb 0.00 in0.0 mm 0.00 in/hr0.0 mm/hr 0.00 in0.0 mm
05:57 AM 74.7°F23.7°C 70.6°F21.4°C 87% Calm Calm 3.6 mph5.8 kmh 29.88 in1011.9 mb 0.00 in0.0 mm 0.00 in/hr0.0 mm/hr 0.00 in0.0 mm
05:42 AM 74.9°F23.8°C 70.7°F21.5°C 87% Calm Calm 3.6 mph5.8 kmh 29.89 in1012.2 mb 0.00 in0.0 mm 0.00 in/hr0.0 mm/hr 0.00 in0.0 mm
05:27 AM 75.1°F23.9°C 70.9°F21.6°C 87% Calm Calm 3.6 mph5.8 kmh 29.88 in1011.9 mb 0.00 in0.0 mm 0.00 in/hr0.0 mm/hr 0.00 in0.0 mm
05:12 AM 75.5°F24.2°C 71.6°F22.0°C 88% Calm Calm 3.6 mph5.8 kmh 29.87 in1011.5 mb 0.00 in0.0 mm 0.00 in/hr0.0 mm/hr 0.00 in0.0 mm
04:57 AM 75.6°F24.2°C 72.5°F22.5°C 90% Calm Calm -- 29.87 in1011.5 mb 0.00 in0.0 mm 0.00 in/hr0.0 mm/hr 0.00 in0.0 mm
04:42 AM 75.5°F24.2°C 72.3°F22.4°C 90% Calm Calm 1.8 mph2.9 kmh 29.87 in1011.5 mb 0.00 in0.0 mm 0.00 in/hr0.0 mm/hr 0.00 in0.0 mm
04:27 AM 75.6°F24.2°C 72.5°F22.5°C 90% Calm Calm 1.8 mph2.9 kmh 29.88 in1011.9 mb 0.00 in0.0 mm 0.00 in/hr0.0 mm/hr 0.00 in0.0 mm
04:12 AM 76.0°F24.4°C 72.8°F22.7°C 90% Calm Calm 1.8 mph2.9 kmh 29.87 in1011.5 mb 0.00 in0.0 mm 0.00 in/hr0.0 mm/hr 0.00 in0.0 mm
03:57 AM 76.2°F24.6°C 73.0°F22.8°C 90% Calm Calm 1.8 mph2.9 kmh 29.87 in1011.5 mb 0.00 in0.0 mm 0.00 in/hr0.0 mm/hr 0.00 in0.0 mm
03:42 AM 76.5°F24.7°C 73.4°F23.0°C 90% Calm Calm 1.8 mph2.9 kmh 29.87 in1011.5 mb 0.00 in0.0 mm 0.00 in/hr0.0 mm/hr 0.00 in0.0 mm
03:27 AM 76.9°F24.9°C 73.7°F23.2°C 90% Calm Calm 1.8 mph2.9 kmh 29.87 in1011.5 mb 0.00 in0.0 mm 0.00 in/hr0.0 mm/hr 0.00 in0.0 mm
03:12 AM 77.1°F25.1°C 73.9°F23.3°C 90% Calm Calm 3.6 mph5.8 kmh 29.87 in1011.5 mb 0.00 in0.0 mm 0.00 in/hr0.0 mm/hr 0.00 in0.0 mm
02:57 AM 77.1°F25.1°C 73.9°F23.3°C 90% Calm Calm 1.8 mph2.9 kmh 29.88 in1011.9 mb 0.00 in0.0 mm 0.00 in/hr0.0 mm/hr 0.00 in0.0 mm
02:42 AM 76.7°F24.8°C 73.5°F23.1°C 90% Calm Calm 1.8 mph2.9 kmh 29.88 in1011.9 mb 0.00 in0.0 mm 0.00 in/hr0.0 mm/hr 0.00 in0.0 mm
02:27 AM 76.5°F24.7°C 73.0°F22.8°C 89% Calm Calm 3.6 mph5.8 kmh 29.88 in1011.9 mb 0.00 in0.0 mm 0.00 in/hr0.0 mm/hr 0.00 in0.0 mm
02:12 AM 76.5°F24.7°C 73.0°F22.8°C 89% Calm Calm 1.8 mph2.9 kmh 29.88 in1011.9 mb 0.00 in0.0 mm 0.00 in/hr0.0 mm/hr 0.00 in0.0 mm
01:57 AM 76.7°F24.8°C 73.2°F22.9°C 89% Calm Calm 1.8 mph2.9 kmh 29.88 in1011.9 mb 0.00 in0.0 mm 0.00 in/hr0.0 mm/hr 0.00 in0.0 mm
01:42 AM 76.7°F24.8°C 72.8°F22.7°C 88% Calm Calm 3.6 mph5.8 kmh 29.88 in1011.9 mb 0.00 in0.0 mm 0.00 in/hr0.0 mm/hr 0.00 in0.0 mm
01:27 AM 76.7°F24.8°C 72.5°F22.5°C 87% Calm Calm 1.8 mph2.9 kmh 29.88 in1011.9 mb 0.00 in0.0 mm 0.00 in/hr0.0 mm/hr 0.00 in0.0 mm
01:12 AM 76.9°F24.9°C 72.3°F22.4°C 86% Calm Calm 1.8 mph2.9 kmh 29.88 in1011.9 mb 0.00 in0.0 mm 0.00 in/hr0.0 mm/hr 0.00 in0.0 mm
12:57 AM 77.4°F25.2°C 72.9°F22.7°C 86% Calm Calm 1.8 mph2.9 kmh 29.88 in1011.9 mb 0.00 in0.0 mm 0.00 in/hr0.0 mm/hr 0.00 in0.0 mm
12:42 AM 77.3°F25.2°C 72.7°F22.6°C 86% Calm Calm 1.8 mph2.9 kmh 29.89 in1012.2 mb 0.00 in0.0 mm 0.00 in/hr0.0 mm/hr 0.00 in0.0 mm
12:27 AM 77.3°F25.2°C 72.7°F22.6°C 86% Calm Calm 1.8 mph2.9 kmh 29.88 in1011.9 mb 0.00 in0.0 mm 0.00 in/hr0.0 mm/hr 0.00 in0.0 mm
12:12 AM 77.4°F25.2°C 72.5°F22.5°C 85% Calm Calm 1.8 mph2.9 kmh 29.88 in1011.9 mb 0.00 in0.0 mm 0.00 in/hr0.0 mm/hr 0.00 in0.0 mm